- বাংলা English

 ****Phone:+880 2 9135742, 9123838, 9141437 | Fax: +880 2 8118230, 9119230, 9103908 | E-mail: info@bmd.gov.bd , swc@bmd.gov.bd   | IVR: 1090 |

TAF

TAF VGHS 272300Z 2800/0106
       00000KT 1500 BR SCT012 BECMG 2802/2804
       27006KT 2000 BR SCT015 BECMG 2805/2807
       31008KT 3000 HZ NSC BECMG 2812/2814
       35006KT 3500 HZ NSC BECMG 2820/2822
       VRB03KT 2500 BR NSC BECMG 2823/0101
       00000KT 1500 BR SCT012 BECMG 0102/0104
       28006KT 2000 BR SCT015 BECMG 0104/0106
       31008KT 3000 HZ NSC=

TAF VGSY 271000Z 2712/2818 20005KT 4500 HZ NSC
BECMG 2718/2720 04004KT 3000 HZ/BR SCT015
BECMG 2723/2801 00000KT 1500 BR SCT012
BECMG 2801/2803 00000KT 2500 BR SCT012
BECMG 2803/2805 10005KT 3000 HZ NSC=

TAF VGEG 271700Z 2718/2824 00000KT 3500 HZ NSC
  BECMG 2722/2724 00000KT 2000 BR SCT015
  TEMPO 2723/2802 00000KT 1200 BR SCT012
  BECMG 2803/2805 25008KT 3500 HZ NSC
  BECMG 2812/2814 30006KT 4000 HZ NSC
  BECMG 2821/2823 00000KT 2000 BR SCT015=